Time;durP1;ratioP1;P1;durP2;ratioP2;P2;SDS_P1;SDS_P2;PMS_P1;PMS_P2;Temp;Humidity;BMP_temperature;BMP_pressure;BME280_temperature;BME280_humidity;BME280_pressure;Samples;Min_cycle;Max_cycle;Signal;HPM_P1;HPM_P2
2023/05/25 00:00:32;;;;;;;9.15;4.35;;;;;;;;;;4979175;28;20133;-86
2023/05/25 00:02:59;;;;;;;8.30;4.50;;;;;;;;;;5005209;28;20049;-85
2023/05/25 00:05:26;;;;;;;7.15;4.05;;;;;;;;;;4974559;28;20095;-86
2023/05/25 00:07:53;;;;;;;9.85;4.40;;;;;;;;;;4985349;28;20045;-86
2023/05/25 00:10:20;;;;;;;9.95;3.83;;;;;;;;;;4990837;28;20116;-85
2023/05/25 00:12:46;;;;;;;4.50;3.08;;;;;;;;;;4980093;28;20077;-86
2023/05/25 00:15:12;;;;;;;5.18;3.00;;;;;;;;;;4986806;28;20052;-86
2023/05/25 00:17:39;;;;;;;8.50;3.35;;;;;;;;;;4998821;28;20046;-86
2023/05/25 00:20:06;;;;;;;8.85;3.40;;;;;;;;;;4982347;28;20046;-86
2023/05/25 00:22:33;;;;;;;8.82;3.92;;;;;;;;;;4984818;28;20045;-85
2023/05/25 00:24:59;;;;;;;10.48;4.85;;;;;;;;;;5005414;28;20048;-85
2023/05/25 00:27:25;;;;;;;8.05;3.60;;;;;;;;;;5001195;28;20034;-86
2023/05/25 00:29:51;;;;;;;6.95;3.90;;;;;;;;;;4969926;28;20487;-86
2023/05/25 00:32:17;;;;;;;9.63;4.15;;;;;;;;;;4971728;28;20049;-86
2023/05/25 00:34:43;;;;;;;5.43;3.30;;;;;;;;;;4997459;28;20132;-86
2023/05/25 00:37:09;;;;;;;7.68;4.03;;;;;;;;;;4972820;28;20124;-86
2023/05/25 00:39:35;;;;;;;8.10;4.20;;;;;;;;;;5003222;28;20038;-86
2023/05/25 00:42:02;;;;;;;6.22;3.00;;;;;;;;;;4985365;28;20038;-85
2023/05/25 00:44:28;;;;;;;12.48;4.70;;;;;;;;;;4984729;28;20073;-86
2023/05/25 00:46:54;;;;;;;14.88;5.40;;;;;;;;;;5005352;28;20034;-86
2023/05/25 00:49:24;;;;;;;8.57;5.40;;;;;;;;;;4973130;28;20487;-86
2023/05/25 00:51:51;;;;;;;7.93;5.15;;;;;;;;;;4970388;28;20038;-85
2023/05/25 00:54:18;;;;;;;10.82;6.00;;;;;;;;;;4966655;28;20133;-85
2023/05/25 00:56:51;;;;;;;13.57;5.78;;;;;;;;;;4973760;28;20541;-85
2023/05/25 00:59:24;;;;;;;21.42;7.35;;;;;;;;;;4983244;28;20038;-85
2023/05/25 01:01:52;;;;;;;14.65;5.85;;;;;;;;;;4972659;28;20037;-85
2023/05/25 01:04:20;;;;;;;10.93;5.72;;;8.60;99.90;;;;;;4986217;28;20239;-85
2023/05/25 01:06:47;;;;;;;12.05;5.80;;;;;;;;;;4988056;28;20842;-85
2023/05/25 01:09:15;;;;;;;8.48;5.50;;;;;;;;;;4965490;28;20048;-86
2023/05/25 01:11:42;;;;;;;10.07;4.70;;;;;;;;;;4988023;28;20672;-85
2023/05/25 01:14:08;;;;;;;7.32;3.92;;;;;;;;;;4977073;28;20435;-86
2023/05/25 01:16:36;;;;;;;7.97;4.65;;;8.60;99.90;;;;;;5004994;28;20397;-85
2023/05/25 01:19:02;;;;;;;8.57;4.63;;;;;;;;;;4971691;28;20397;-86
2023/05/25 01:21:32;;;;;;;7.20;5.07;;;;;;;;;;4985204;28;20589;-85
2023/05/25 01:24:03;;;;;;;8.43;3.90;;;;;;;;;;4987713;28;20160;-86
2023/05/25 01:26:33;;;;;;;5.45;4.22;;;8.10;99.90;;;;;;4971819;28;20042;-85
2023/05/25 01:29:00;;;;;;;7.65;4.57;;;8.10;99.90;;;;;;4966152;28;20053;-85
2023/05/25 01:31:27;;;;;;;9.48;4.53;;;;;;;;;;4986093;28;20041;-85
2023/05/25 01:33:53;;;;;;;9.63;5.15;;;;;;;;;;4979485;28;20046;-85
2023/05/25 01:36:19;;;;;;;9.35;5.45;;;;;;;;;;4985921;28;20103;-85
2023/05/25 01:38:45;;;;;;;9.30;4.25;;;;;;;;;;4982954;28;20042;-85
2023/05/25 01:41:11;;;;;;;7.38;5.18;;;;;;;;;;4989451;28;20037;-85
2023/05/25 01:43:37;;;;;;;8.65;4.82;;;;;;;;;;5002321;28;20034;-85
2023/05/25 01:46:30;;;;;;;9.20;5.00;;;;;;;;;;4974458;28;20054;-85
2023/05/25 01:49:07;;;;;;;15.93;5.63;;;;;;;;;;4987356;28;20054;-85
2023/05/25 01:51:33;;;;;;;14.57;5.05;;;;;;;;;;4984623;28;20045;-85
2023/05/25 01:54:02;;;;;;;15.07;6.10;;;;;;;;;;4981868;28;20054;-85
2023/05/25 01:56:30;;;;;;;12.98;6.40;;;;;;;;;;4978445;28;20095;-85
2023/05/25 01:58:57;;;;;;;13.85;7.15;;;;;;;;;;4994616;28;20050;-86
2023/05/25 02:01:24;;;;;;;13.75;7.05;;;;;;;;;;4985111;28;20391;-85
2023/05/25 02:03:50;;;;;;;10.30;6.75;;;;;;;;;;5007113;28;20046;-85
2023/05/25 02:06:16;;;;;;;14.77;7.30;;;;;;;;;;4988005;28;20053;-85
2023/05/25 02:08:45;;;;;;;11.95;6.72;;;;;;;;;;4988332;28;20103;-85
2023/05/25 02:11:13;;;;;;;10.82;5.90;;;;;;;;;;5006380;28;20077;-85
2023/05/25 02:13:39;;;;;;;8.48;5.95;;;;;;;;;;4988731;28;20777;-85
2023/05/25 02:16:05;;;;;;;8.48;5.05;;;;;;;;;;4982356;28;20057;-85
2023/05/25 02:18:33;;;;;;;7.15;4.13;;;;;;;;;;4982515;28;20535;-85
2023/05/25 02:20:59;;;;;;;6.43;5.13;;;;;;;;;;4979366;28;20054;-86
2023/05/25 02:23:25;;;;;;;6.25;4.80;;;;;;;;;;4974672;28;20076;-85
2023/05/25 02:25:51;;;;;;;5.93;4.68;;;;;;;;;;4986425;28;20472;-85
2023/05/25 02:28:17;;;;;;;6.90;5.07;;;;;;;;;;4972530;28;20069;-85
2023/05/25 02:30:43;;;;;;;30.45;5.22;;;;;;;;;;4975716;28;20046;-85
2023/05/25 02:33:09;;;;;;;12.18;6.28;;;;;;;;;;4985762;28;20051;-85
2023/05/25 02:35:35;;;;;;;6.68;4.68;;;;;;;;;;4981941;28;20533;-85
2023/05/25 02:38:01;;;;;;;4.57;3.47;;;;;;;;;;4992010;28;20041;-85
2023/05/25 02:40:26;;;;;;;4.68;2.63;;;;;;;;;;4975090;28;20037;-85
2023/05/25 02:42:52;;;;;;;3.95;1.95;;;;;;;;;;4959213;28;20035;-85
2023/05/25 02:45:18;;;;;;;5.53;2.90;;;;;;;;;;5002656;28;20084;-85
2023/05/25 02:47:44;;;;;;;6.50;3.67;;;;;;;;;;4998021;28;20038;-85
2023/05/25 02:50:11;;;;;;;7.80;4.68;;;;;;;;;;5000556;28;20042;-85
2023/05/25 02:52:37;;;;;;;10.63;4.47;;;;;;;;;;4992266;28;20053;-85
2023/05/25 02:55:03;;;;;;;11.43;5.05;;;;;;;;;;5007248;28;20051;-85
2023/05/25 02:57:29;;;;;;;10.73;5.35;;;;;;;;;;4983890;28;20674;-85
2023/05/25 02:59:55;;;;;;;6.47;4.50;;;;;;;;;;4988829;28;20080;-85
2023/05/25 03:02:24;;;;;;;9.63;5.20;;;;;;;;;;5004003;28;20042;-85
2023/05/25 03:04:52;;;;;;;20.92;6.10;;;;;;;;;;4995605;28;20120;-85
2023/05/25 03:07:19;;;;;;;8.85;5.22;;;;;;;;;;4984436;28;20056;-85
2023/05/25 03:09:45;;;;;;;8.65;5.15;;;;;;;;;;4977439;28;20081;-85
2023/05/25 03:12:11;;;;;;;11.60;5.65;;;;;;;;;;5009911;28;20073;-86
2023/05/25 03:14:37;;;;;;;14.02;5.63;;;;;;;;;;4987935;28;20097;-85
2023/05/25 03:17:03;;;;;;;8.73;5.10;;;;;;;;;;4980897;28;20140;-85
2023/05/25 03:19:29;;;;;;;10.98;5.28;;;;;;;;;;4986699;28;20050;-85
2023/05/25 03:21:55;;;;;;;17.98;5.65;;;;;;;;;;4970416;28;20048;-85
2023/05/25 03:24:21;;;;;;;15.20;5.88;;;;;;;;;;4998546;28;20042;-85
2023/05/25 03:26:47;;;;;;;10.77;5.53;;;;;;;;;;4984632;28;20045;-85
2023/05/25 03:29:13;;;;;;;12.45;6.25;;;;;;;;;;4987846;28;20034;-85
2023/05/25 03:31:39;;;;;;;11.95;6.03;;;;;;;;;;4986430;28;20045;-85
2023/05/25 03:34:05;;;;;;;12.27;6.70;;;;;;;;;;4993676;28;20045;-85
2023/05/25 03:36:32;;;;;;;11.27;7.15;;;;;;;;;;4989612;28;20457;-85
2023/05/25 03:38:58;;;;;;;11.43;6.82;;;;;;;;;;5001689;28;20073;-85
2023/05/25 03:41:25;;;;;;;6.03;5.35;;;;;;;;;;5000719;28;20514;-85
2023/05/25 03:43:51;;;;;;;6.85;4.88;;;;;;;;;;4978607;28;20037;-85
2023/05/25 03:46:17;;;;;;;6.07;4.22;;;;;;;;;;4975639;28;20048;-85
2023/05/25 03:48:43;;;;;;;4.65;3.75;;;;;;;;;;5006544;28;20046;-85
2023/05/25 03:51:09;;;;;;;21.73;5.00;;;;;;;;;;4974813;28;20050;-85
2023/05/25 03:53:35;;;;;;;5.78;3.28;;;;;;;;;;4985835;28;20757;-85
2023/05/25 03:56:01;;;;;;;5.05;2.83;;;;;;;;;;4989799;28;20041;-85
2023/05/25 03:58:27;;;;;;;6.63;3.35;;;;;;;;;;4988228;28;20663;-86
2023/05/25 04:00:55;;;;;;;4.38;3.58;;;;;;;;;;4981548;28;20038;-85
2023/05/25 04:03:21;;;;;;;4.72;4.00;;;;;;;;;;4989926;28;20050;-85
2023/05/25 04:05:47;;;;;;;6.57;3.97;;;;;;;;;;5006626;28;20488;-85
2023/05/25 04:08:16;;;;;;;4.50;3.60;;;7.60;99.90;;;;;;5008973;28;20050;-85
2023/05/25 04:10:42;;;;;;;5.43;3.67;;;;;;;;;;4989516;28;20439;-85
2023/05/25 04:13:08;;;;;;;5.45;4.07;;;;;;;;;;4990993;28;20049;-85
2023/05/25 04:15:34;;;;;;;4.68;3.80;;;;;;;;;;4971111;28;20050;-85
2023/05/25 04:18:01;;;;;;;5.07;3.50;;;;;;;;;;4986844;28;20053;-86
2023/05/25 04:20:28;;;;;;;5.78;3.70;;;;;;;;;;4988277;28;20041;-85
2023/05/25 04:22:54;;;;;;;10.80;4.28;;;;;;;;;;4988504;28;20125;-85
2023/05/25 04:25:20;;;;;;;7.28;3.88;;;;;;;;;;4995616;28;20037;-85
2023/05/25 04:27:47;;;;;;;8.45;4.40;;;;;;;;;;4967951;28;20774;-85
2023/05/25 04:30:13;;;;;;;7.10;4.30;;;;;;;;;;4986654;28;21502;-85
2023/05/25 04:32:39;;;;;;;6.70;4.90;;;;;;;;;;5003045;28;20078;-85
2023/05/25 04:35:05;;;;;;;6.88;4.63;;;;;;;;;;4987475;28;20046;-85
2023/05/25 04:37:32;;;;;;;7.55;4.72;;;;;;;;;;4973563;28;20041;-85
2023/05/25 04:39:58;;;;;;;5.60;4.30;;;;;;;;;;5003018;28;20110;-85
2023/05/25 04:42:25;;;;;;;5.38;4.55;;;;;;;;;;4974477;28;20042;-85
2023/05/25 04:44:54;;;;;;;6.03;4.75;;;;;;;;;;4975380;28;20419;-85
2023/05/25 04:47:20;;;;;;;8.45;5.32;;;;;;;;;;4994499;28;20048;-85
2023/05/25 04:49:46;;;;;;;11.80;5.13;;;;;;;;;;4998660;28;20046;-84
2023/05/25 04:52:12;;;;;;;9.10;5.35;;;;;;;;;;4987028;28;20050;-85
2023/05/25 04:54:38;;;;;;;11.35;6.20;;;;;;;;;;4982446;28;20150;-85
2023/05/25 04:57:05;;;;;;;8.38;5.53;;;;;;;;;;5000382;28;20122;-85
2023/05/25 04:59:31;;;;;;;9.68;5.38;;;;;;;;;;5003371;28;20045;-86
2023/05/25 05:01:57;;;;;;;9.15;5.07;;;;;;;;;;4989259;28;20104;-85
2023/05/25 05:04:23;;;;;;;10.38;5.95;;;;;;;;;;4988963;28;20052;-85
2023/05/25 05:06:49;;;;;;;10.82;5.57;;;;;;;;;;4983207;28;20054;-86
2023/05/25 05:09:15;;;;;;;11.25;5.38;;;;;;;;;;4989556;28;20061;-85
2023/05/25 05:11:40;;;;;;;11.13;5.35;;;;;;;;;;4983814;28;20484;-86
2023/05/25 05:14:07;;;;;;;10.10;5.88;;;;;;;;;;5007655;28;20052;-85
2023/05/25 05:16:33;;;;;;;11.23;5.95;;;;;;;;;;4990018;28;20056;-86
2023/05/25 05:19:00;;;;;;;15.02;6.50;;;12.70;99.90;;;;;;4983722;28;20050;-86
2023/05/25 05:21:26;;;;;;;13.65;6.20;;;;;;;;;;4985619;28;20043;-86
2023/05/25 05:23:52;;;;;;;13.85;7.45;;;;;;;;;;4990136;28;20042;-86
2023/05/25 05:26:18;;;;;;;9.68;5.35;;;;;;;;;;4985274;28;20049;-86
2023/05/25 05:28:44;;;;;;;12.70;6.57;;;;;;;;;;5006189;28;20042;-86
2023/05/25 05:31:10;;;;;;;14.25;5.65;;;;;;;;;;4986687;28;20510;-86
2023/05/25 05:33:36;;;;;;;14.75;6.40;;;;;;;;;;4986621;28;20080;-86
2023/05/25 05:36:03;;;;;;;13.32;5.95;;;15.40;99.90;;;;;;4970126;28;20045;-86
2023/05/25 05:38:29;;;;;;;10.98;5.75;;;15.60;99.90;;;;;;4976957;28;20061;-86
2023/05/25 05:40:54;;;;;;;13.15;5.72;;;16.10;99.90;;;;;;5007133;28;20041;-86
2023/05/25 05:43:20;;;;;;;14.45;5.85;;;16.10;99.90;;;;;;4988827;28;20041;-86
2023/05/25 05:45:46;;;;;;;11.05;5.65;;;16.90;99.90;;;;;;4987618;28;20377;-86
2023/05/25 05:48:11;;;;;;;10.18;5.65;;;16.80;99.90;;;;;;4968407;28;20176;-86
2023/05/25 05:50:37;;;;;;;14.13;6.10;;;17.00;99.90;;;;;;4999791;28;20038;-86
2023/05/25 05:53:05;;;;;;;18.63;6.43;;;17.40;99.90;;;;;;4982895;28;20042;-87
2023/05/25 05:55:30;;;;;;;10.73;5.20;;;18.00;99.90;;;;;;4969821;28;20041;-87
2023/05/25 05:57:56;;;;;;;15.00;6.97;;;18.80;99.90;;;;;;5000611;28;20064;-86
2023/05/25 06:00:22;;;;;;;14.45;5.00;;;19.00;99.90;;;;;;5004128;28;20038;-87
2023/05/25 06:02:47;;;;;;;12.40;5.15;;;19.10;99.90;;;;;;4972593;28;20072;-86
2023/05/25 06:05:13;;;;;;;13.85;5.68;;;18.80;99.90;;;;;;4964897;28;20037;-87
2023/05/25 06:07:39;;;;;;;10.45;4.88;;;19.10;99.90;;;;;;4999440;28;20064;-86
2023/05/25 06:10:05;;;;;;;12.68;5.70;;;19.10;99.90;;;;;;4986245;28;20041;-86
2023/05/25 06:12:31;;;;;;;11.00;5.55;;;18.70;99.90;;;;;;5002507;28;20046;-86
2023/05/25 06:14:56;;;;;;;12.52;6.05;;;17.70;99.90;;;;;;4982655;28;20514;-86
2023/05/25 06:17:23;;;;;;;13.55;5.88;;;17.30;99.90;;;;;;4970211;28;20565;-86
2023/05/25 06:19:49;;;;;;;10.75;5.47;;;;;;;;;;4972406;28;20042;-87
2023/05/25 06:22:15;;;;;;;20.15;6.82;;;16.80;99.90;;;;;;4989231;28;20396;-88
2023/05/25 06:24:41;;;;;;;14.05;6.32;;;16.70;99.90;;;;;;4984627;28;20057;-85
2023/05/25 06:27:07;;;;;;;14.77;7.10;;;;;;;;;;4994923;28;20037;-86
2023/05/25 06:29:33;;;;;;;13.73;6.25;;;;;;;;;;5002358;28;20038;-86
2023/05/25 06:31:59;;;;;;;14.65;5.97;;;;;;;;;;4971064;28;20069;-86
2023/05/25 06:34:25;;;;;;;14.30;6.07;;;;;;;;;;5000225;28;20052;-86
2023/05/25 06:36:51;;;;;;;11.07;5.65;;;;;;;;;;4990337;28;20483;-86
2023/05/25 06:39:17;;;;;;;15.65;5.35;;;;;;;;;;4980782;28;20176;-86
2023/05/25 06:41:43;;;;;;;14.35;6.00;;;;;;;;;;4986796;28;20038;-86
2023/05/25 06:44:09;;;;;;;18.20;6.63;;;;;;;;;;4977701;28;20046;-85
2023/05/25 06:46:35;;;;;;;21.20;7.32;;;15.50;99.90;;;;;;4970382;28;20044;-86
2023/05/25 06:49:02;;;;;;;10.07;6.03;;;15.20;99.90;;;;;;5004808;28;20080;-86
2023/05/25 06:51:28;;;;;;;16.80;5.47;;;;;;;;;;4989109;28;20058;-86
2023/05/25 06:53:54;;;;;;;13.85;5.60;;;14.60;99.90;;;;;;4971859;28;20575;-85
2023/05/25 06:56:21;;;;;;;19.80;5.88;;;14.80;99.90;;;;;;4987966;28;20041;-85
2023/05/25 06:58:47;;;;;;;21.17;6.10;;;;;;;;;;5002317;28;20046;-85
2023/05/25 07:01:13;;;;;;;11.75;4.97;;;;;;;;;;4966112;28;20124;-85
2023/05/25 07:03:39;;;;;;;15.63;5.70;;;;;;;;;;4980159;28;20447;-85
2023/05/25 07:06:06;;;;;;;11.90;4.97;;;;;;;;;;4987887;28;20134;-87
2023/05/25 07:08:32;;;;;;;13.05;5.13;;;;;;;;;;4984652;28;20567;-87
2023/05/25 07:10:58;;;;;;;14.48;6.13;;;;;;;;;;4985985;28;20120;-86
2023/05/25 07:13:24;;;;;;;16.58;4.88;;;;;;;;;;4991186;28;20045;-86
2023/05/25 07:15:51;;;;;;;21.35;5.93;;;;;;;;;;4985049;28;20042;-87
2023/05/25 07:18:17;;;;;;;15.63;5.30;;;;;;;;;;5002185;28;20043;-87
2023/05/25 07:20:43;;;;;;;13.93;5.75;;;;;;;;;;4963300;28;20046;-87
2023/05/25 07:23:10;;;;;;;15.15;5.70;;;14.80;99.90;;;;;;5005211;28;20052;-87
2023/05/25 07:25:37;;;;;;;18.17;4.78;;;14.90;99.90;;;;;;4977158;28;20130;-87
2023/05/25 07:28:03;;;;;;;15.68;4.97;;;;;;;;;;4966942;28;20120;-87
2023/05/25 07:30:29;;;;;;;15.98;5.03;;;;;;;;;;4969883;28;20141;-88
2023/05/25 07:32:56;;;;;;;19.23;5.60;;;;;;;;;;4985687;28;20044;-87
2023/05/25 07:35:22;;;;;;;16.15;4.88;;;;;;;;;;4986023;28;20045;-88
2023/05/25 07:37:59;;;;;;;13.45;4.35;;;14.40;99.90;;;;;;4966548;28;20551;-88
2023/05/25 07:40:25;;;;;;;14.13;4.95;;;;;;;;;;4999757;28;20034;-87
2023/05/25 07:42:51;;;;;;;11.27;3.63;;;;;;;;;;4987944;28;20034;-87
2023/05/25 07:45:17;;;;;;;13.70;4.63;;;;;;;;;;5006886;28;20050;-88
2023/05/25 07:47:43;;;;;;;13.80;3.58;;;;;;;;;;4973286;28;20057;-87
2023/05/25 07:50:09;;;;;;;18.65;4.75;;;14.20;99.90;;;;;;4970737;28;20062;-87
2023/05/25 07:52:37;;;;;;;11.43;4.10;;;;;;;;;;4975416;28;20081;-88
2023/05/25 07:55:03;;;;;;;11.30;3.65;;;;;;;;;;4983947;28;20049;-87
2023/05/25 07:57:29;;;;;;;16.25;4.28;;;;;;;;;;4971567;28;20099;-87
2023/05/25 07:59:55;;;;;;;12.90;3.90;;;;;;;;;;4984569;28;20121;-89
2023/05/25 08:02:21;;;;;;;15.00;3.88;;;;;;;;;;4972104;28;20124;-89
2023/05/25 08:04:47;;;;;;;12.82;5.00;;;;;;;;;;4972108;28;20042;-88
2023/05/25 08:07:13;;;;;;;14.65;3.88;;;;;;;;;;4985321;28;20073;-89
2023/05/25 08:09:39;;;;;;;11.98;3.95;;;;;;;;;;4974302;28;20108;-89
2023/05/25 08:12:05;;;;;;;17.38;3.63;;;;;;;;;;4974949;28;20041;-89
2023/05/25 08:14:31;;;;;;;10.90;4.60;;;;;;;;;;4987810;28;20042;-89
2023/05/25 08:16:57;;;;;;;16.67;4.15;;;;;;;;;;5002786;28;20645;-90
2023/05/25 08:19:24;;;;;;;9.57;3.33;;;;;;;;;;4998321;28;20050;-88
2023/05/25 08:21:53;;;;;;;15.95;3.58;;;;;;;;;;4987721;28;20034;-88
2023/05/25 08:24:19;;;;;;;17.13;3.90;;;;;;;;;;4963526;28;20104;-88
2023/05/25 08:26:46;;;;;;;14.07;3.97;;;;;;;;;;4989208;28;20034;-88
2023/05/25 08:29:12;;;;;;;11.98;3.75;;;;;;;;;;4986677;28;20073;-86
2023/05/25 08:31:40;;;;;;;15.93;3.95;;;;;;;;;;4989558;28;20116;-86
2023/05/25 08:34:06;;;;;;;18.27;3.88;;;;;;;;;;4977068;28;20081;-86
2023/05/25 08:36:34;;;;;;;16.17;5.45;;;;;;;;;;4975577;28;20456;-87
2023/05/25 08:39:00;;;;;;;18.55;3.65;;;;;;;;;;4967567;28;20034;-87
2023/05/25 08:41:26;;;;;;;15.90;4.30;;;;;;;;;;4972072;28;20053;-87
2023/05/25 08:43:52;;;;;;;16.20;4.78;;;;;;;;;;4975080;28;20039;-88
2023/05/25 08:46:31;;;;;;;19.65;4.60;;;14.50;99.90;;;;;;5002202;28;20048;-87
2023/05/25 08:49:02;;;;;;;17.38;5.57;;;14.40;99.90;;;;;;5006002;28;20369;-87
2023/05/25 08:51:35;;;;;;;19.20;4.47;;;14.50;99.90;;;;;;4981603;28;20567;-86
2023/05/25 08:54:04;;;;;;;20.10;5.63;;;;;;;;;;4983111;28;20162;-87
2023/05/25 08:56:35;;;;;;;25.08;5.32;;;14.40;99.90;;;;;;4987334;28;20088;-86
2023/05/25 08:59:33;;;;;;;19.38;5.00;;;14.10;99.90;;;;;;4975677;28;20038;-86
2023/05/25 09:02:27;;;;;;;18.88;5.30;;;14.10;99.90;;;;;;4982353;28;20127;-86
2023/05/25 09:04:54;;;;;;;19.45;4.90;;;14.20;99.90;;;;;;4980466;28;20498;-87
2023/05/25 09:07:21;;;;;;;18.20;4.78;;;;;;;;;;4999769;28;20061;-86
2023/05/25 09:09:47;;;;;;;27.02;5.97;;;;;;;;;;4992665;28;20046;-87
2023/05/25 09:12:14;;;;;;;23.38;4.88;;;14.20;99.90;;;;;;4964419;28;20180;-87
2023/05/25 09:14:46;;;;;;;19.70;4.45;;;;;;;;;;4982853;28;20061;-88
2023/05/25 09:17:17;;;;;;;19.05;5.38;;;14.70;99.90;;;;;;4987821;28;20061;-87
2023/05/25 09:19:43;;;;;;;18.33;4.32;;;;;;;;;;4984941;28;20057;-87
2023/05/25 09:22:10;;;;;;;23.60;4.80;;;;;;;;;;4985808;28;20039;-87
2023/05/25 09:24:36;;;;;;;32.03;5.93;;;;;;;;;;4974640;28;20132;-88
2023/05/25 09:27:02;;;;;;;21.08;4.72;;;;;;;;;;4985731;28;20038;-87
2023/05/25 09:29:29;;;;;;;24.58;4.78;;;;;;;;;;4974730;28;20077;-88
2023/05/25 09:31:55;;;;;;;18.73;4.25;;;14.90;99.90;;;;;;4997100;28;20037;-88
2023/05/25 09:34:21;;;;;;;16.95;4.13;;;;;;;;;;4969306;28;20044;-87
2023/05/25 09:36:47;;;;;;;23.05;4.60;;;;;;;;;;4970712;28;20038;-88
2023/05/25 09:39:15;;;;;;;30.73;5.35;;;;;;;;;;4989667;28;20404;-87
2023/05/25 09:41:42;;;;;;;16.35;3.45;;;15.60;99.90;;;;;;4995744;28;20038;-87
2023/05/25 09:44:08;;;;;;;27.10;5.13;;;;;;;;;;4982595;28;20502;-87
2023/05/25 09:46:37;;;;;;;20.45;4.55;;;15.70;99.90;;;;;;4993843;28;20049;-87
2023/05/25 09:49:07;;;;;;;19.90;4.45;;;15.60;99.90;;;;;;4960381;28;20527;-88
2023/05/25 09:51:35;;;;;;;18.15;4.97;;;15.50;99.90;;;;;;4963934;28;20518;-89
2023/05/25 09:54:01;;;;;;;28.60;4.88;;;;;;;;;;4976030;28;20091;-88
2023/05/25 09:56:29;;;;;;;19.52;4.28;;;15.90;99.90;;;;;;4980490;28;20446;-87
2023/05/25 09:58:55;;;;;;;21.60;4.95;;;15.90;99.90;;;;;;4961210;28;20042;-87
2023/05/25 10:01:22;;;;;;;15.27;3.58;;;;;;;;;;4973710;28;20084;-89
2023/05/25 10:03:49;;;;;;;17.73;4.28;;;;;;;;;;4965368;28;20511;-89
2023/05/25 10:06:19;;;;;;;25.55;4.60;;;15.80;99.90;;;;;;4998192;28;20061;-88
2023/05/25 10:08:45;;;;;;;16.80;4.20;;;;;;;;;;4973539;28;20550;-91
2023/05/25 10:11:15;;;;;;;25.65;5.07;;;15.90;99.90;;;;;;4970032;28;20046;-90
2023/05/25 10:13:44;;;;;;;17.73;4.28;;;15.70;99.90;;;;;;4973587;28;20084;-90
2023/05/25 10:16:12;;;;;;;15.02;3.90;;;;;;;;;;4989927;28;20058;-90
2023/05/25 10:18:47;;;;;;;17.25;4.35;;;16.00;99.90;;;;;;4982502;28;20480;-92
2023/05/25 10:21:15;;;;;;;20.67;4.50;;;16.10;99.90;;;;;;4987793;28;20787;-90
2023/05/25 10:23:46;;;;;;;24.38;4.40;;;16.00;99.90;;;;;;4973673;28;20049;-91
2023/05/25 10:26:22;;;;;;;18.30;4.75;;;16.10;99.90;;;;;;4973794;28;20045;-91
2023/05/25 10:28:59;;;;;;;30.38;5.85;;;15.80;99.90;;;;;;4992477;28;20046;-90
2023/05/25 10:31:28;;;;;;;18.73;4.07;;;;;;;;;;4987501;28;20399;-91
2023/05/25 10:33:55;;;;;;;23.00;4.13;;;16.10;99.90;;;;;;4974321;28;20125;-90
2023/05/25 10:36:23;;;;;;;14.82;4.00;;;16.20;99.90;;;;;;4976434;28;20050;-88
2023/05/25 10:38:50;;;;;;;17.55;4.00;;;16.00;99.90;;;;;;4958627;28;20042;-89
2023/05/25 10:41:18;;;;;;;19.85;4.07;;;16.10;99.90;;;;;;4989577;28;20030;-90
2023/05/25 10:43:44;;;;;;;17.77;4.30;;;;;;;;;;4967900;28;20048;-88
2023/05/25 10:46:13;;;;;;;19.55;4.72;;;;;;;;;;5003546;28;20038;-89
2023/05/25 10:48:45;;;;;;;15.95;3.72;;;16.60;99.90;;;;;;4975110;28;20459;-90
2023/05/25 10:51:14;;;;;;;22.60;4.65;;;16.60;99.90;;;;;;4963102;28;20571;-90
2023/05/25 10:53:57;;;;;;;23.48;4.80;;;16.50;99.90;;;;;;4967423;28;20080;-89
2023/05/25 10:56:23;;;;;;;19.10;5.00;;;;;;;;;;4981595;28;20049;-89
2023/05/25 10:58:49;;;;;;;18.52;4.25;;;;;;;;;;4976241;28;20046;-90
2023/05/25 11:01:15;;;;;;;21.20;4.10;;;;;;;;;;5000502;28;20097;-89
2023/05/25 11:03:43;;;;;;;18.15;4.60;;;16.60;99.90;;;;;;5001546;28;20038;-90
2023/05/25 11:06:10;;;;;;;19.45;4.22;;;;;;;;;;4966002;28;20534;-90
2023/05/25 11:08:53;;;;;;;17.95;4.88;;;16.70;99.90;;;;;;4987581;28;20495;-89
2023/05/25 11:11:19;;;;;;;13.55;3.55;;;;;;;;;;5005707;28;20052;-90
2023/05/25 11:13:49;;;;;;;18.70;5.32;;;17.10;99.90;;;;;;4990055;28;20499;-89
2023/05/25 11:16:33;;;;;;;27.88;5.55;;;16.80;99.90;;;;;;4991302;28;20054;-90
2023/05/25 11:18:59;;;;;;;19.55;4.75;;;;;;;;;;4989078;28;20052;-89
2023/05/25 11:21:25;;;;;;;22.60;4.32;;;;;;;;;;4988960;28;20034;-90
2023/05/25 11:24:05;;;;;;;16.48;3.88;;;16.50;99.90;;;;;;4974803;28;20478;-90
2023/05/25 11:26:34;;;;;;;19.77;3.50;;;16.40;99.90;;;;;;4977395;28;20041;-89
2023/05/25 11:29:10;;;;;;;17.80;3.97;;;16.70;99.90;;;;;;4986687;28;20511;-89
2023/05/25 11:31:38;;;;;;;21.70;4.03;;;;;;;;;;4975634;28;20049;-90
2023/05/25 11:34:04;;;;;;;22.00;4.57;;;;;;;;;;4973320;28;20447;-90
2023/05/25 11:36:32;;;;;;;25.90;4.13;;;16.60;99.90;;;;;;5008382;28;20514;-90
2023/05/25 11:39:03;;;;;;;12.65;4.18;;;16.60;99.90;;;;;;4976389;28;20064;-89
2023/05/25 11:41:31;;;;;;;18.38;4.15;;;;;;;;;;4964585;28;20042;-91
2023/05/25 11:44:03;;;;;;;23.00;4.72;;;16.80;99.90;;;;;;4987145;28;20042;-91
2023/05/25 11:46:32;;;;;;;20.88;4.38;;;;;;;;;;4996899;28;20049;-90
2023/05/25 11:48:58;;;;;;;18.35;4.72;;;;;;;;;;5008626;28;20057;-90
2023/05/25 11:51:26;;;;;;;21.77;5.10;;;16.80;99.90;;;;;;5012188;28;20038;-90
2023/05/25 11:53:52;;;;;;;18.27;3.85;;;;;;;;;;5007461;28;20260;-89
2023/05/25 11:56:19;;;;;;;23.40;4.60;;;17.00;99.90;;;;;;4992446;28;20053;-90
2023/05/25 11:58:49;;;;;;;21.10;4.25;;;;;;;;;;4973594;28;20041;-90
2023/05/25 12:01:24;;;;;;;20.08;3.67;;;16.90;99.90;;;;;;4974341;28;20042;-90
2023/05/25 12:03:55;;;;;;;28.13;5.25;;;16.80;99.90;;;;;;4970877;28;20049;-92
2023/05/25 12:06:30;;;;;;;23.08;5.65;;;16.90;99.90;;;;;;4973144;28;20045;-90
2023/05/25 12:08:56;;;;;;;;;;;16.90;99.90;;;;;;4985707;28;20161;-90
2023/05/25 12:11:48;;;;;;;21.23;5.00;;;16.70;99.90;;;;;;4973473;28;20012;-90
2023/05/25 12:14:15;;;;;;;19.55;4.32;;;;;;;;;;4973909;28;20144;-90
2023/05/25 12:16:41;;;;;;;20.15;4.57;;;;;;;;;;4967300;28;20089;-90
2023/05/25 12:19:07;;;;;;;18.98;6.15;;;;;;;;;;4971147;28;20053;-90
2023/05/25 12:21:35;;;;;;;21.58;4.70;;;;;;;;;;4986218;28;20096;-91
2023/05/25 12:24:01;;;;;;;21.80;4.45;;;;;;;;;;4984592;28;20053;-90
2023/05/25 12:26:27;;;;;;;20.17;4.47;;;;;;;;;;4974878;28;20534;-90
2023/05/25 12:29:11;;;;;;;20.98;4.93;;;16.70;99.90;;;;;;4988563;28;20165;-90
2023/05/25 12:31:38;;;;;;;18.45;4.63;;;;;;;;;;4961544;28;20046;-90
2023/05/25 12:34:08;;;;;;;18.92;4.45;;;16.60;99.90;;;;;;4969507;28;20037;-90
2023/05/25 12:36:52;;;;;;;22.48;3.97;;;16.70;99.90;;;;;;4970644;28;20049;-90
2023/05/25 12:39:29;;;;;;;18.40;3.22;;;16.80;99.90;;;;;;4974624;28;20464;-90
2023/05/25 12:41:57;;;;;;;18.98;4.72;;;16.70;99.90;;;;;;4986303;28;20522;-90
2023/05/25 12:44:24;;;;;;;21.58;4.50;;;;;;;;;;4974971;28;20103;-90
2023/05/25 12:46:51;;;;;;;26.15;5.00;;;16.60;99.90;;;;;;4985592;28;20046;-91
2023/05/25 12:49:28;;;;;;;21.45;4.50;;;16.50;99.90;;;;;;4968134;28;20038;-90
2023/05/25 12:51:54;;;;;;;19.67;4.50;;;;;;;;;;4988828;28;20128;-90
2023/05/25 12:54:37;;;;;;;17.95;4.50;;;16.60;99.90;;;;;;4991025;28;20130;-90
2023/05/25 12:57:07;;;;;;;16.88;4.40;;;16.60;99.90;;;;;;4991289;28;20465;-90
2023/05/25 12:59:34;;;;;;;18.42;3.90;;;16.20;99.90;;;;;;4970434;28;20042;-89
2023/05/25 13:02:01;;;;;;;17.58;3.70;;;14.30;99.90;;;;;;4989269;28;20054;-90
2023/05/25 13:04:27;;;;;;;21.42;5.20;;;;;;;;;;4990627;28;20038;-91
2023/05/25 13:06:54;;;;;;;17.75;4.38;;;;;;;;;;4975103;28;20569;-91
2023/05/25 13:09:22;;;;;;;17.25;4.25;;;16.30;99.90;;;;;;4985903;28;20191;-91
2023/05/25 13:11:48;;;;;;;17.50;3.85;;;;;;;;;;4972707;28;20042;-90
2023/05/25 13:14:15;;;;;;;17.35;3.78;;;;;;;;;;4974121;28;20046;-90
2023/05/25 13:16:41;;;;;;;21.65;3.70;;;;;;;;;;4979613;28;20073;-90
2023/05/25 13:19:07;;;;;;;22.42;5.70;;;;;;;;;;4993920;28;20520;-90
2023/05/25 13:21:33;;;;;;;17.80;4.35;;;;;;;;;;4973731;28;20117;-91
2023/05/25 13:23:59;;;;;;;15.55;4.22;;;;;;;;;;4987156;28;20121;-91
2023/05/25 13:26:26;;;;;;;26.70;5.15;;;;;;;;;;4970640;28;20046;-90
2023/05/25 13:28:52;;;;;;;30.92;6.25;;;;;;;;;;4971273;28;20555;-90
2023/05/25 13:31:18;;;;;;;20.30;5.18;;;;;;;;;;4986945;28;20042;-90
2023/05/25 13:33:44;;;;;;;18.98;4.32;;;;;;;;;;4971979;28;20038;-90
2023/05/25 13:36:10;;;;;;;18.10;4.43;;;;;;;;;;4987046;28;20109;-90
2023/05/25 13:38:37;;;;;;;22.92;4.63;;;16.50;99.90;;;;;;4970819;28;20589;-91
2023/05/25 13:41:03;;;;;;;23.38;5.07;;;;;;;;;;4971539;28;20519;-91
2023/05/25 13:43:29;;;;;;;24.15;6.82;;;;;;;;;;4958766;28;20515;-90
2023/05/25 13:45:57;;;;;;;18.20;5.13;;;;;;;;;;4982129;28;20073;-91
2023/05/25 13:48:26;;;;;;;23.23;6.25;;;16.70;99.90;;;;;;4986494;28;20034;-91
2023/05/25 13:50:52;;;;;;;21.92;4.90;;;;;;;;;;4984074;28;20176;-90
2023/05/25 13:53:18;;;;;;;19.00;4.35;;;;;;;;;;4988126;28;20049;-90
2023/05/25 13:55:44;;;;;;;22.35;4.68;;;;;;;;;;4978918;28;20042;-90
2023/05/25 13:58:10;;;;;;;21.67;5.32;;;;;;;;;;4981021;28;20058;-90
2023/05/25 14:00:36;;;;;;;24.33;6.75;;;;;;;;;;4965556;28;20042;-90